createdAt,value
2022-11-16T00:00:04.288Z,0.00
2022-11-16T00:00:58.683Z,0.00
2022-11-16T00:01:58.718Z,0.00
2022-11-16T00:02:58.660Z,0.00
2022-11-16T00:03:58.622Z,0.00
2022-11-16T00:04:58.786Z,0.00
2022-11-16T00:05:58.591Z,0.00
2022-11-16T00:06:58.654Z,0.00
2022-11-16T00:07:58.634Z,0.00
2022-11-16T00:08:58.582Z,0.00
2022-11-16T00:09:58.546Z,0.00
2022-11-16T00:10:58.569Z,0.00
2022-11-16T00:11:58.539Z,0.00
2022-11-16T00:12:58.517Z,0.00
2022-11-16T00:13:58.497Z,0.00
2022-11-16T00:14:58.491Z,0.00
2022-11-16T00:15:58.518Z,0.00
2022-11-16T00:16:58.472Z,0.00
2022-11-16T00:17:58.456Z,0.00
2022-11-16T00:18:58.449Z,0.00
2022-11-16T00:19:58.413Z,0.00
2022-11-16T00:20:58.411Z,0.00
2022-11-16T00:21:58.420Z,0.00
2022-11-16T00:22:58.384Z,0.00
2022-11-16T00:23:58.355Z,0.00
2022-11-16T00:24:58.387Z,0.00
2022-11-16T00:25:58.339Z,0.00
2022-11-16T00:26:58.355Z,0.00
2022-11-16T00:27:58.325Z,0.00
2022-11-16T00:28:58.301Z,0.00
2022-11-16T00:29:58.337Z,0.00
2022-11-16T00:30:58.267Z,0.00
2022-11-16T00:31:58.305Z,0.00
2022-11-16T00:32:58.247Z,0.00
2022-11-16T00:33:58.232Z,0.00
2022-11-16T00:34:58.210Z,0.00
2022-11-16T00:35:58.267Z,0.00
2022-11-16T00:36:58.180Z,0.00
2022-11-16T00:37:58.190Z,0.00
2022-11-16T00:38:58.194Z,0.00
2022-11-16T00:39:58.164Z,0.00
2022-11-16T00:40:58.249Z,0.00
2022-11-16T00:41:58.134Z,0.00
2022-11-16T00:42:58.163Z,0.00
2022-11-16T00:43:58.121Z,0.00
2022-11-16T00:44:58.092Z,0.00
2022-11-16T00:45:58.106Z,0.00
2022-11-16T00:46:58.082Z,0.00
2022-11-16T00:48:00.621Z,0.00
2022-11-16T00:48:58.024Z,0.00
2022-11-16T00:49:58.042Z,0.00
2022-11-16T00:50:58.014Z,0.00
2022-11-16T00:51:58.035Z,0.00
2022-11-16T00:52:57.982Z,0.00
2022-11-16T00:53:57.980Z,0.00
2022-11-16T00:54:57.946Z,0.00
2022-11-16T00:55:57.992Z,0.00
2022-11-16T00:56:57.916Z,0.00
2022-11-16T00:57:57.957Z,0.00
2022-11-16T00:58:57.919Z,0.00
2022-11-16T00:59:57.910Z,0.00
2022-11-16T01:00:57.924Z,0.00
2022-11-16T01:01:57.876Z,0.00
2022-11-16T01:02:57.872Z,0.00
2022-11-16T01:03:57.853Z,0.00
2022-11-16T01:04:57.903Z,0.00
2022-11-16T01:05:57.825Z,0.00
2022-11-16T01:06:57.813Z,0.00
2022-11-16T01:07:57.811Z,0.00
2022-11-16T01:08:57.801Z,0.00
2022-11-16T01:09:57.766Z,0.00
2022-11-16T01:10:57.739Z,0.00
2022-11-16T01:11:57.796Z,0.00
2022-11-16T01:12:57.713Z,0.00
2022-11-16T01:13:57.750Z,0.00
2022-11-16T01:14:57.683Z,0.00
2022-11-16T01:15:57.679Z,0.00
2022-11-16T01:16:57.660Z,0.00
2022-11-16T01:17:57.653Z,0.00
2022-11-16T01:18:57.682Z,0.00
2022-11-16T01:19:57.674Z,0.00
2022-11-16T01:20:57.607Z,0.00
2022-11-16T01:21:57.632Z,0.00
2022-11-16T01:22:57.574Z,0.00
2022-11-16T01:23:57.588Z,0.00
2022-11-16T01:24:57.592Z,0.00
2022-11-16T01:25:57.558Z,0.00
2022-11-16T01:26:57.544Z,0.00
2022-11-16T01:27:57.533Z,0.00
2022-11-16T01:28:57.534Z,0.00
2022-11-16T01:29:57.499Z,0.00
2022-11-16T01:30:57.509Z,0.00
2022-11-16T01:31:57.480Z,0.00
2022-11-16T01:32:57.482Z,0.00
2022-11-16T01:33:57.448Z,0.00
2022-11-16T01:34:57.422Z,0.00
2022-11-16T01:35:57.547Z,0.00
2022-11-16T01:36:57.386Z,0.00
2022-11-16T01:37:57.393Z,0.00
2022-11-16T01:38:57.392Z,0.00
2022-11-16T01:39:57.364Z,0.00
2022-11-16T01:40:57.347Z,0.00
2022-11-16T01:41:57.462Z,0.00
2022-11-16T01:42:57.310Z,0.00
2022-11-16T01:43:57.318Z,0.00
2022-11-16T01:44:57.286Z,0.00
2022-11-16T01:45:57.290Z,0.00
2022-11-16T01:46:57.394Z,0.00
2022-11-16T01:47:57.313Z,0.00
2022-11-16T01:48:57.246Z,0.00
2022-11-16T01:49:57.230Z,0.00
2022-11-16T01:50:57.227Z,0.00
2022-11-16T01:51:57.290Z,0.00
2022-11-16T01:52:57.214Z,0.00
2022-11-16T01:53:57.252Z,0.00
2022-11-16T01:54:57.148Z,0.00
2022-11-16T01:55:57.160Z,0.00
2022-11-16T01:56:57.187Z,0.00
2022-11-16T01:57:57.155Z,0.00
2022-11-16T01:58:57.119Z,0.00
2022-11-16T01:59:57.095Z,0.00
2022-11-16T02:00:57.135Z,0.00
2022-11-16T02:01:57.199Z,0.00
2022-11-16T02:02:57.082Z,0.00
2022-11-16T02:03:57.098Z,0.00
2022-11-16T02:04:57.036Z,0.00
2022-11-16T02:05:57.054Z,0.00
2022-11-16T02:06:57.137Z,0.00
2022-11-16T02:07:56.979Z,0.00
2022-11-16T02:08:57.042Z,0.00
2022-11-16T02:09:56.952Z,0.00
2022-11-16T02:10:56.951Z,0.00
2022-11-16T02:11:56.923Z,0.00
2022-11-16T02:12:56.991Z,0.00
2022-11-16T02:13:56.927Z,0.00
2022-11-16T02:14:56.918Z,0.00
2022-11-16T02:15:56.971Z,0.00
2022-11-16T02:16:56.877Z,0.00
2022-11-16T02:17:56.858Z,0.00
2022-11-16T02:18:56.844Z,0.00
2022-11-16T02:19:57.017Z,0.00
2022-11-16T02:20:56.832Z,0.00
2022-11-16T02:21:56.811Z,0.00
2022-11-16T02:22:56.804Z,0.00
2022-11-16T02:23:56.929Z,0.00
2022-11-16T02:24:56.792Z,0.00
2022-11-16T02:25:56.794Z,0.00
2022-11-16T02:26:56.783Z,0.00
2022-11-16T02:27:56.742Z,0.00
2022-11-16T02:28:56.713Z,0.00
2022-11-16T02:29:56.730Z,0.00
2022-11-16T02:30:56.721Z,0.00
2022-11-16T02:31:56.659Z,0.00
2022-11-16T02:32:56.672Z,0.00
2022-11-16T02:33:56.631Z,0.00
2022-11-16T02:34:56.635Z,0.00
2022-11-16T02:35:56.620Z,0.00
2022-11-16T02:36:56.717Z,0.00
2022-11-16T02:37:56.590Z,0.00
2022-11-16T02:38:56.582Z,0.00
2022-11-16T02:39:56.561Z,0.00
2022-11-16T02:40:56.595Z,0.00
2022-11-16T02:41:56.558Z,0.00
2022-11-16T02:42:56.531Z,0.00
2022-11-16T02:43:56.533Z,0.00
2022-11-16T02:44:56.495Z,0.00
2022-11-16T02:45:56.585Z,0.00
2022-11-16T02:46:56.478Z,0.00
2022-11-16T02:47:56.535Z,0.00
2022-11-16T02:48:56.451Z,0.00
2022-11-16T02:49:56.425Z,0.00
2022-11-16T02:50:56.454Z,0.00
2022-11-16T02:51:56.389Z,0.00
2022-11-16T02:52:56.430Z,0.00
2022-11-16T02:53:56.429Z,0.00
2022-11-16T02:54:56.379Z,0.00
2022-11-16T02:55:56.353Z,0.00
2022-11-16T02:56:56.338Z,0.00
2022-11-16T02:57:56.316Z,0.00
2022-11-16T02:58:56.344Z,0.00
2022-11-16T02:59:56.292Z,0.00
2022-11-16T03:00:56.357Z,0.00
2022-11-16T03:01:56.291Z,0.00
2022-11-16T03:02:56.263Z,0.00
2022-11-16T03:03:56.308Z,0.00
2022-11-16T03:04:56.272Z,0.00
2022-11-16T03:05:56.283Z,0.00
2022-11-16T03:06:56.281Z,0.00
2022-11-16T03:07:56.260Z,0.00
2022-11-16T03:08:56.198Z,0.00
2022-11-16T03:09:56.211Z,0.00
2022-11-16T03:10:56.162Z,0.00
2022-11-16T03:11:56.143Z,0.00
2022-11-16T03:12:56.185Z,0.00
2022-11-16T03:13:56.152Z,0.00
2022-11-16T03:14:56.279Z,0.00
2022-11-16T03:15:56.159Z,0.00
2022-11-16T03:16:56.097Z,0.00
2022-11-16T03:17:56.064Z,0.00
2022-11-16T03:18:56.088Z,0.00
2022-11-16T03:19:56.036Z,0.00
2022-11-16T03:20:56.056Z,0.00
2022-11-16T03:21:56.027Z,0.00
2022-11-16T03:22:55.996Z,0.00
2022-11-16T03:23:55.980Z,0.00
2022-11-16T03:24:56.006Z,0.00
2022-11-16T03:25:55.982Z,0.00
2022-11-16T03:26:55.957Z,0.00
2022-11-16T03:27:55.924Z,0.00
2022-11-16T03:28:55.924Z,0.00
2022-11-16T03:29:55.894Z,0.00
2022-11-16T03:30:55.913Z,0.00
2022-11-16T03:31:55.895Z,0.00
2022-11-16T03:32:55.863Z,0.00
2022-11-16T03:33:55.838Z,0.00
2022-11-16T03:34:55.929Z,0.00
2022-11-16T03:35:55.825Z,0.00
2022-11-16T03:36:55.840Z,0.00
2022-11-16T03:37:55.806Z,0.00
2022-11-16T03:38:55.788Z,0.00
2022-11-16T03:39:55.771Z,0.00
2022-11-16T03:40:55.803Z,0.00
2022-11-16T03:41:55.754Z,0.00
2022-11-16T03:42:55.788Z,0.00
2022-11-16T03:43:55.713Z,0.00
2022-11-16T03:44:55.736Z,0.00
2022-11-16T03:45:55.693Z,0.00
2022-11-16T03:46:55.679Z,0.00
2022-11-16T03:47:55.698Z,0.00
2022-11-16T03:48:55.661Z,0.00
2022-11-16T03:49:55.648Z,0.00
2022-11-16T03:50:55.632Z,0.00
2022-11-16T03:51:55.624Z,0.00
2022-11-16T03:52:55.611Z,0.00
2022-11-16T03:53:55.599Z,0.00
2022-11-16T03:54:55.634Z,0.00
2022-11-16T03:55:55.563Z,0.00
2022-11-16T03:56:55.552Z,0.00
2022-11-16T03:57:55.625Z,0.00
2022-11-16T03:58:55.552Z,0.00
2022-11-16T03:59:55.621Z,0.00
2022-11-16T04:00:55.544Z,0.00
2022-11-16T04:01:55.473Z,0.00
2022-11-16T04:02:55.591Z,0.00
2022-11-16T04:03:55.448Z,0.00
2022-11-16T04:04:55.483Z,0.00
2022-11-16T04:05:55.521Z,0.00
2022-11-16T04:06:55.461Z,0.00
2022-11-16T04:07:55.416Z,0.00
2022-11-16T04:08:55.410Z,0.00
2022-11-16T04:09:55.387Z,0.00
2022-11-16T04:10:55.427Z,0.00
2022-11-16T04:11:55.369Z,0.00
2022-11-16T04:12:55.342Z,0.00
2022-11-16T04:13:55.311Z,0.00
2022-11-16T04:14:55.319Z,0.00
2022-11-16T04:15:55.343Z,0.00
2022-11-16T04:16:55.283Z,0.00
2022-11-16T04:17:55.369Z,0.00
2022-11-16T04:18:55.285Z,0.00
2022-11-16T04:19:58.085Z,0.00
2022-11-16T04:20:55.263Z,0.00
2022-11-16T04:21:55.213Z,0.00
2022-11-16T04:22:55.271Z,0.00
2022-11-16T04:23:55.179Z,0.00
2022-11-16T04:24:55.211Z,0.00
2022-11-16T04:25:55.154Z,0.00
2022-11-16T04:26:55.204Z,0.00
2022-11-16T04:27:55.139Z,0.00
2022-11-16T04:28:55.144Z,0.00
2022-11-16T04:29:55.104Z,0.00
2022-11-16T04:30:55.099Z,0.00
2022-11-16T04:31:55.254Z,0.00
2022-11-16T04:32:55.081Z,0.00
2022-11-16T04:33:55.052Z,0.00
2022-11-16T04:34:55.091Z,0.00
2022-11-16T04:35:55.034Z,0.00
2022-11-16T04:36:55.027Z,0.00
2022-11-16T04:37:55.053Z,0.00
2022-11-16T04:38:55.013Z,0.00
2022-11-16T04:39:54.993Z,0.00
2022-11-16T04:40:54.970Z,0.00
2022-11-16T04:41:55.038Z,0.00
2022-11-16T04:42:55.002Z,0.00
2022-11-16T04:43:54.929Z,0.00
2022-11-16T04:44:54.915Z,0.00
2022-11-16T04:45:54.922Z,0.00
2022-11-16T04:46:54.885Z,0.00
2022-11-16T04:47:54.866Z,0.00
2022-11-16T04:48:55.007Z,0.00
2022-11-16T04:49:54.845Z,0.00
2022-11-16T04:50:54.867Z,0.00
2022-11-16T04:51:54.815Z,0.00
2022-11-16T04:52:54.898Z,0.00
2022-11-16T04:53:54.822Z,0.00
2022-11-16T04:54:54.824Z,0.00
2022-11-16T04:55:59.562Z,0.00
2022-11-16T04:56:54.767Z,0.00
2022-11-16T04:57:54.781Z,0.00
2022-11-16T04:58:54.750Z,0.00
2022-11-16T04:59:54.726Z,0.00
2022-11-16T05:00:54.778Z,0.00
2022-11-16T05:01:54.676Z,0.00
2022-11-16T05:03:00.818Z,0.00
2022-11-16T05:03:54.664Z,0.00
2022-11-16T05:04:54.708Z,0.00
2022-11-16T05:05:54.632Z,0.00
2022-11-16T05:06:54.706Z,0.00
2022-11-16T05:07:54.616Z,0.00
2022-11-16T05:08:54.669Z,0.00
2022-11-16T05:09:54.577Z,0.00
2022-11-16T05:10:54.624Z,0.00
2022-11-16T05:11:54.595Z,0.00
2022-11-16T05:12:54.555Z,0.00
2022-11-16T05:13:54.524Z,0.00
2022-11-16T05:14:54.564Z,0.00
2022-11-16T05:15:54.522Z,0.00
2022-11-16T05:16:54.500Z,0.00
2022-11-16T05:17:54.468Z,0.00
2022-11-16T05:18:54.507Z,0.00
2022-11-16T05:19:54.438Z,0.00
2022-11-16T05:20:54.447Z,0.00
2022-11-16T05:21:54.443Z,0.00
2022-11-16T05:22:54.430Z,0.00
2022-11-16T05:23:54.411Z,0.00
2022-11-16T05:24:54.397Z,0.00
2022-11-16T05:25:54.398Z,0.00
2022-11-16T05:26:54.392Z,0.00
2022-11-16T05:27:54.343Z,0.00
2022-11-16T05:28:54.337Z,0.00
2022-11-16T05:29:54.309Z,0.00
2022-11-16T05:30:54.321Z,0.00
2022-11-16T05:31:54.288Z,0.00
2022-11-16T05:32:54.312Z,0.00
2022-11-16T05:33:54.267Z,0.00
2022-11-16T05:34:54.257Z,0.00
2022-11-16T05:35:54.249Z,0.00
2022-11-16T05:36:54.247Z,0.00
2022-11-16T05:37:54.286Z,0.00
2022-11-16T05:38:56.355Z,0.00
2022-11-16T05:39:54.180Z,0.00
2022-11-16T05:40:54.184Z,0.00
2022-11-16T05:41:54.151Z,0.00
2022-11-16T05:42:54.160Z,0.00
2022-11-16T05:43:54.201Z,0.00
2022-11-16T05:44:54.126Z,0.00
2022-11-16T05:45:54.110Z,0.00
2022-11-16T05:46:54.150Z,0.00
2022-11-16T05:47:54.069Z,0.00
2022-11-16T05:48:54.102Z,0.00
2022-11-16T05:49:54.061Z,0.00
2022-11-16T05:50:54.046Z,0.00
2022-11-16T05:51:54.029Z,0.00
2022-11-16T05:52:54.024Z,0.00
2022-11-16T05:53:53.994Z,0.00
2022-11-16T05:54:54.022Z,0.00
2022-11-16T05:55:54.022Z,0.00
2022-11-16T05:56:54.064Z,0.00
2022-11-16T05:57:53.955Z,0.00
2022-11-16T05:58:53.970Z,0.00
2022-11-16T05:59:53.942Z,0.00
2022-11-16T06:00:53.969Z,0.00
2022-11-16T06:01:53.898Z,0.00
2022-11-16T06:02:53.974Z,0.00
2022-11-16T06:03:53.859Z,0.00
2022-11-16T06:04:53.946Z,0.00
2022-11-16T06:05:53.862Z,0.00
2022-11-16T06:06:53.904Z,0.00
2022-11-16T06:07:53.804Z,0.00
2022-11-16T06:08:53.909Z,0.00
2022-11-16T06:09:53.796Z,0.00
2022-11-16T06:10:53.818Z,0.00
2022-11-16T06:11:53.770Z,0.00
2022-11-16T06:12:53.754Z,0.00
2022-11-16T06:13:53.686Z,1.00
2022-11-16T06:14:53.802Z,1.00
2022-11-16T06:15:53.682Z,1.00
2022-11-16T06:16:53.676Z,2.00
2022-11-16T06:17:53.638Z,2.00
2022-11-16T06:18:53.620Z,2.00
2022-11-16T06:19:53.609Z,3.00
2022-11-16T06:20:53.588Z,3.00
2022-11-16T06:21:53.688Z,2.00
2022-11-16T06:22:53.569Z,3.00
2022-11-16T06:23:53.567Z,9.00
2022-11-16T06:24:53.661Z,8.00
2022-11-16T06:25:53.534Z,11.00
2022-11-16T06:26:53.590Z,12.00
2022-11-16T06:27:53.540Z,16.00
2022-11-16T06:28:53.482Z,16.00
2022-11-16T06:29:53.481Z,20.00
2022-11-16T06:30:53.525Z,26.00
2022-11-16T06:31:53.464Z,31.00
2022-11-16T06:32:53.480Z,35.00
2022-11-16T06:33:53.480Z,44.00
2022-11-16T06:34:53.405Z,50.00
2022-11-16T06:35:53.400Z,56.00
2022-11-16T06:36:53.519Z,65.00
2022-11-16T06:37:53.403Z,75.00
2022-11-16T06:38:53.376Z,83.00
2022-11-16T06:39:53.374Z,93.00
2022-11-16T06:40:53.321Z,103.00
2022-11-16T06:41:53.333Z,113.00
2022-11-16T06:42:53.344Z,128.00
2022-11-16T06:43:53.334Z,136.00
2022-11-16T06:44:53.379Z,148.00
2022-11-16T06:45:53.266Z,162.00
2022-11-16T06:46:53.265Z,174.00
2022-11-16T06:47:53.250Z,189.00
2022-11-16T06:48:53.236Z,205.00
2022-11-16T06:49:53.283Z,226.00
2022-11-16T06:50:53.207Z,250.00
2022-11-16T06:51:53.209Z,273.00
2022-11-16T06:52:53.167Z,293.00
2022-11-16T06:53:53.161Z,320.00
2022-11-16T06:54:53.174Z,339.00
2022-11-16T06:55:53.148Z,372.00
2022-11-16T06:56:53.128Z,384.00
2022-11-16T06:57:53.123Z,421.00
2022-11-16T06:58:53.752Z,410.00
2022-11-16T06:59:53.215Z,376.00
2022-11-16T07:00:53.124Z,390.00
2022-11-16T07:01:53.160Z,375.00
2022-11-16T07:02:53.033Z,389.00
2022-11-16T07:03:53.056Z,336.00
2022-11-16T07:04:53.093Z,319.00
2022-11-16T07:05:53.034Z,396.00
2022-11-16T07:06:53.045Z,340.00
2022-11-16T07:07:52.995Z,338.00
2022-11-16T07:08:52.956Z,319.00
2022-11-16T07:09:52.958Z,312.00
2022-11-16T07:10:52.960Z,311.00
2022-11-16T07:11:52.977Z,290.00
2022-11-16T07:12:52.905Z,276.00
2022-11-16T07:13:52.896Z,274.00
2022-11-16T07:14:52.928Z,300.00
2022-11-16T07:15:52.879Z,348.00
2022-11-16T07:16:59.067Z,357.00
2022-11-16T07:17:52.873Z,457.00
2022-11-16T07:18:52.848Z,442.00
2022-11-16T07:19:52.825Z,448.00
2022-11-16T07:20:52.829Z,620.00
2022-11-16T07:21:52.796Z,742.00
2022-11-16T07:22:52.796Z,816.00
2022-11-16T07:23:52.781Z,865.00
2022-11-16T07:24:52.781Z,881.00
2022-11-16T07:25:52.869Z,921.00
2022-11-16T07:26:52.754Z,928.00
2022-11-16T07:27:52.772Z,900.00
2022-11-16T07:28:52.698Z,686.00
2022-11-16T07:29:52.698Z,864.00
2022-11-16T07:30:52.664Z,864.00
2022-11-16T07:31:52.672Z,980.00
2022-11-16T07:32:52.707Z,948.00
2022-11-16T07:33:52.664Z,746.00
2022-11-16T07:34:52.617Z,697.00
2022-11-16T07:35:52.651Z,932.00
2022-11-16T07:36:52.608Z,855.00
2022-11-16T07:37:52.584Z,650.00
2022-11-16T07:38:52.642Z,517.00
2022-11-16T07:39:52.564Z,498.00
2022-11-16T07:40:52.533Z,1220.00
2022-11-16T07:41:52.541Z,1579.00
2022-11-16T07:42:52.515Z,1346.00
2022-11-16T07:43:53.294Z,1158.00
2022-11-16T07:44:52.605Z,1021.00
2022-11-16T07:45:52.508Z,835.00
2022-11-16T07:46:52.519Z,637.00
2022-11-16T07:47:52.509Z,1162.00
2022-11-16T07:48:52.484Z,780.00
2022-11-16T07:49:52.467Z,821.00
2022-11-16T07:50:52.413Z,1083.00
2022-11-16T07:51:52.407Z,1476.00
2022-11-16T07:52:52.377Z,1650.00
2022-11-16T07:53:52.392Z,1579.00
2022-11-16T07:54:52.348Z,1743.00
2022-11-16T07:55:52.385Z,1987.00
2022-11-16T07:56:52.341Z,1710.00
2022-11-16T07:57:53.564Z,1799.00
2022-11-16T07:58:52.299Z,2019.00
2022-11-16T07:59:52.322Z,2011.00
2022-11-16T08:00:52.320Z,1658.00
2022-11-16T08:01:52.328Z,2107.00
2022-11-16T08:02:52.266Z,2041.00
2022-11-16T08:03:52.244Z,1893.00
2022-11-16T08:04:52.231Z,1841.00
2022-11-16T08:05:52.237Z,1844.00
2022-11-16T08:06:52.298Z,1856.00
2022-11-16T08:07:52.191Z,1864.00
2022-11-16T08:08:57.826Z,1895.00
2022-11-16T08:09:52.359Z,1966.00
2022-11-16T08:10:52.141Z,2085.00
2022-11-16T08:11:52.182Z,2251.00
2022-11-16T08:12:52.117Z,2371.00
2022-11-16T08:13:52.121Z,2269.00
2022-11-16T08:14:52.099Z,2051.00
2022-11-16T08:15:52.089Z,2082.00
2022-11-16T08:16:52.066Z,2074.00
2022-11-16T08:17:52.096Z,2199.00
2022-11-16T08:18:52.074Z,1856.00
2022-11-16T08:19:52.045Z,2319.00
2022-11-16T08:20:52.012Z,2244.00
2022-11-16T08:21:52.008Z,2087.00
2022-11-16T08:22:52.141Z,2757.00
2022-11-16T08:23:57.827Z,2414.00
2022-11-16T08:24:51.996Z,2898.00
2022-11-16T08:25:51.961Z,2660.00
2022-11-16T08:26:51.946Z,2427.00
2022-11-16T08:27:51.949Z,2248.00
2022-11-16T08:28:51.946Z,1914.00
2022-11-16T08:29:51.940Z,2305.00
2022-11-16T08:30:53.875Z,2340.00
2022-11-16T08:31:51.884Z,2372.00
2022-11-16T08:32:51.910Z,2355.00
2022-11-16T08:33:51.888Z,2293.00
2022-11-16T08:34:51.834Z,2849.00
2022-11-16T08:35:51.824Z,2965.00
2022-11-16T08:36:51.811Z,2720.00
2022-11-16T08:37:51.799Z,2593.00
2022-11-16T08:38:51.772Z,2641.00
2022-11-16T08:39:51.812Z,2618.00
2022-11-16T08:40:51.752Z,2525.00
2022-11-16T08:41:51.758Z,2775.00
2022-11-16T08:42:51.733Z,2482.00
2022-11-16T08:43:51.730Z,2933.00
2022-11-16T08:44:51.727Z,3122.00
2022-11-16T08:45:51.696Z,2922.00
2022-11-16T08:46:51.688Z,2755.00
2022-11-16T08:47:53.679Z,2794.00
2022-11-16T08:48:51.652Z,2825.00
2022-11-16T08:49:51.673Z,2902.00
2022-11-16T08:51:15.879Z,2568.00
2022-11-16T08:51:51.623Z,3381.00
2022-11-16T08:52:51.588Z,3238.00
2022-11-16T08:53:51.613Z,3509.00
2022-11-16T08:54:51.560Z,3162.00
2022-11-16T08:55:51.598Z,3051.00
2022-11-16T08:56:51.564Z,3985.00
2022-11-16T08:57:51.543Z,3501.00
2022-11-16T08:58:56.777Z,3201.00
2022-11-16T08:59:51.557Z,3174.00
2022-11-16T09:00:51.486Z,3019.00
2022-11-16T09:01:51.593Z,3023.00
2022-11-16T09:02:51.484Z,3041.00
2022-11-16T09:03:51.454Z,3049.00
2022-11-16T09:04:51.444Z,3097.00
2022-11-16T09:05:51.465Z,3110.00
2022-11-16T09:06:51.474Z,2925.00
2022-11-16T09:07:51.412Z,2853.00
2022-11-16T09:08:51.435Z,2938.00
2022-11-16T09:09:51.386Z,2694.00
2022-11-16T09:10:51.351Z,3316.00
2022-11-16T09:11:51.376Z,3151.00
2022-11-16T09:12:51.358Z,2918.00
2022-11-16T09:13:51.340Z,3061.00
2022-11-16T09:14:51.321Z,3121.00
2022-11-16T09:15:51.300Z,3408.00
2022-11-16T09:16:51.279Z,3623.00
2022-11-16T09:17:51.320Z,3882.00
2022-11-16T09:18:51.249Z,3552.00
2022-11-16T09:19:51.250Z,4174.00
2022-11-16T09:20:51.220Z,3803.00
2022-11-16T09:21:51.253Z,3633.00
2022-11-16T09:22:51.201Z,4182.00
2022-11-16T09:23:51.223Z,3966.00
2022-11-16T09:24:51.201Z,3943.00
2022-11-16T09:25:51.175Z,3864.00
2022-11-16T09:26:51.141Z,3847.00
2022-11-16T09:27:51.164Z,3741.00
2022-11-16T09:29:00.274Z,3950.00
2022-11-16T09:29:51.117Z,4053.00
2022-11-16T09:30:51.104Z,3991.00
2022-11-16T09:31:51.087Z,3452.00
2022-11-16T09:32:51.061Z,3117.00
2022-11-16T09:33:51.080Z,2994.00
2022-11-16T09:34:51.066Z,3031.00
2022-11-16T09:35:51.044Z,3562.00
2022-11-16T09:36:51.010Z,3226.00
2022-11-16T09:37:51.064Z,3338.00
2022-11-16T09:39:51.074Z,4004.00
2022-11-16T09:40:51.006Z,3582.00
2022-11-16T09:41:50.966Z,2575.00
2022-11-16T09:42:50.926Z,3872.00
2022-11-16T09:43:50.960Z,3669.00
2022-11-16T09:44:50.903Z,3197.00
2022-11-16T09:45:50.938Z,3349.00
2022-11-16T09:46:50.921Z,3401.00
2022-11-16T09:47:50.884Z,3091.00
2022-11-16T09:48:50.857Z,3672.00
2022-11-16T09:49:50.871Z,4424.00
2022-11-16T09:50:50.862Z,3917.00
2022-11-16T09:51:50.831Z,4539.00
2022-11-16T09:52:50.833Z,4100.00
2022-11-16T09:53:50.807Z,3857.00
2022-11-16T09:54:50.768Z,3530.00
2022-11-16T09:55:50.848Z,3687.00
2022-11-16T09:56:50.753Z,3783.00
2022-11-16T09:57:50.754Z,3872.00
2022-11-16T09:58:50.731Z,4506.00
2022-11-16T09:59:50.721Z,4096.00
2022-11-16T10:00:50.741Z,3603.00
2022-11-16T10:01:50.789Z,3526.00
2022-11-16T10:02:50.693Z,4064.00
2022-11-16T10:03:50.689Z,3608.00
2022-11-16T10:04:56.704Z,4138.00
2022-11-16T10:05:50.640Z,3597.00
2022-11-16T10:06:50.735Z,4207.00
2022-11-16T10:07:50.609Z,4581.00
2022-11-16T10:08:50.582Z,3695.00
2022-11-16T10:09:50.590Z,3715.00
2022-11-16T10:10:50.553Z,4929.00
2022-11-16T10:11:50.558Z,4102.00
2022-11-16T10:12:50.568Z,4260.00
2022-11-16T10:13:50.528Z,4103.00
2022-11-16T10:14:50.504Z,3385.00
2022-11-16T10:15:50.512Z,3176.00
2022-11-16T10:16:50.519Z,3391.00
2022-11-16T10:17:50.504Z,3497.00
2022-11-16T10:18:50.476Z,3584.00
2022-11-16T10:19:50.443Z,3515.00
2022-11-16T10:20:50.444Z,3345.00
2022-11-16T10:21:50.425Z,4324.00
2022-11-16T10:22:50.405Z,3938.00
2022-11-16T10:23:50.452Z,4998.00
2022-11-16T10:24:50.376Z,4418.00
2022-11-16T10:25:50.367Z,4377.00
2022-11-16T10:26:50.360Z,4519.00
2022-11-16T10:27:50.390Z,4723.00
2022-11-16T10:28:50.361Z,4956.00
2022-11-16T10:29:50.331Z,4461.00
2022-11-16T10:30:50.310Z,4255.00
2022-11-16T10:31:50.270Z,3944.00
2022-11-16T10:32:50.275Z,4106.00
2022-11-16T10:33:50.263Z,4467.00
2022-11-16T10:34:50.443Z,4349.00
2022-11-16T10:35:50.218Z,4406.00
2022-11-16T10:36:50.218Z,4328.00
2022-11-16T10:37:50.194Z,4253.00
2022-11-16T10:38:50.195Z,3831.00
2022-11-16T10:39:50.209Z,3306.00
2022-11-16T10:40:50.169Z,3492.00
2022-11-16T10:41:50.161Z,3199.00
2022-11-16T10:42:50.168Z,3387.00
2022-11-16T10:43:50.118Z,3041.00
2022-11-16T10:44:50.117Z,2981.00
2022-11-16T10:45:50.134Z,2876.00
2022-11-16T10:46:50.088Z,3172.00
2022-11-16T10:47:50.061Z,3143.00
2022-11-16T10:48:50.078Z,3673.00
2022-11-16T10:49:50.033Z,4367.00
2022-11-16T10:50:50.084Z,4445.00
2022-11-16T10:51:50.064Z,4158.00
2022-11-16T10:52:50.007Z,4355.00
2022-11-16T10:53:49.986Z,4658.00
2022-11-16T10:54:50.030Z,4939.00
2022-11-16T10:55:49.961Z,4970.00
2022-11-16T10:56:49.998Z,4867.00
2022-11-16T10:57:49.961Z,4135.00
2022-11-16T10:58:49.925Z,4048.00
2022-11-16T10:59:49.907Z,3652.00
2022-11-16T11:00:49.933Z,3755.00
2022-11-16T11:01:49.933Z,3632.00
2022-11-16T11:02:49.878Z,3615.00
2022-11-16T11:03:49.857Z,4180.00
2022-11-16T11:04:49.857Z,4443.00
2022-11-16T11:05:49.839Z,3953.00
2022-11-16T11:06:49.967Z,3372.00
2022-11-16T11:07:49.827Z,3577.00
2022-11-16T11:08:49.792Z,3512.00
2022-11-16T11:09:49.789Z,3539.00
2022-11-16T11:10:49.769Z,4080.00
2022-11-16T11:11:49.740Z,3962.00
2022-11-16T11:12:49.795Z,3709.00
2022-11-16T11:13:49.719Z,3922.00
2022-11-16T11:14:49.721Z,4144.00
2022-11-16T11:15:49.684Z,4258.00
2022-11-16T11:16:49.724Z,3894.00
2022-11-16T11:17:49.667Z,3699.00
2022-11-16T11:18:49.692Z,3861.00
2022-11-16T11:19:49.690Z,4127.00
2022-11-16T11:20:49.638Z,4215.00
2022-11-16T11:21:49.605Z,4406.00
2022-11-16T11:22:49.605Z,4111.00
2022-11-16T11:23:49.741Z,3863.00
2022-11-16T11:24:49.629Z,3596.00
2022-11-16T11:25:49.575Z,3983.00
2022-11-16T11:26:49.551Z,4615.00
2022-11-16T11:27:49.614Z,4681.00
2022-11-16T11:28:49.547Z,4149.00
2022-11-16T11:29:49.638Z,3765.00
2022-11-16T11:30:49.525Z,3698.00
2022-11-16T11:31:49.514Z,3182.00
2022-11-16T11:32:49.475Z,5729.00
2022-11-16T11:33:49.469Z,4750.00
2022-11-16T11:34:49.479Z,5393.00
2022-11-16T11:35:49.415Z,5619.00
2022-11-16T11:36:49.663Z,5051.00
2022-11-16T11:37:49.390Z,4399.00
2022-11-16T11:38:49.441Z,3864.00
2022-11-16T11:39:49.388Z,3575.00
2022-11-16T11:40:49.416Z,3636.00
2022-11-16T11:41:49.341Z,3627.00
2022-11-16T11:42:49.333Z,3665.00
2022-11-16T11:43:49.340Z,3893.00
2022-11-16T11:44:49.315Z,3969.00
2022-11-16T11:45:49.319Z,4184.00
2022-11-16T11:47:35.108Z,4336.00
2022-11-16T11:48:04.728Z,4411.00
2022-11-16T11:48:49.268Z,4740.00
2022-11-16T11:49:49.276Z,5267.00
2022-11-16T11:50:49.236Z,5658.00
2022-11-16T11:51:49.231Z,5461.00
2022-11-16T11:52:49.207Z,4906.00
2022-11-16T11:53:49.182Z,4426.00
2022-11-16T11:54:49.183Z,3879.00
2022-11-16T11:55:49.154Z,3419.00
2022-11-16T11:56:49.209Z,3171.00
2022-11-16T11:57:49.128Z,3410.00
2022-11-16T11:58:49.122Z,2828.00
2022-11-16T11:59:49.094Z,2990.00
2022-11-16T12:00:49.168Z,3344.00
2022-11-16T12:01:49.069Z,3243.00
2022-11-16T12:02:49.162Z,2725.00
2022-11-16T12:03:49.077Z,3183.00
2022-11-16T12:04:49.043Z,3759.00
2022-11-16T12:05:49.016Z,2763.00
2022-11-16T12:06:49.112Z,3918.00
2022-11-16T12:07:49.037Z,5317.00
2022-11-16T12:08:48.985Z,7866.00
2022-11-16T12:09:48.986Z,6947.00
2022-11-16T12:10:48.963Z,4331.00
2022-11-16T12:11:48.940Z,2654.00
2022-11-16T12:12:48.960Z,5208.00
2022-11-16T12:13:48.943Z,4638.00
2022-11-16T12:14:48.909Z,4539.00
2022-11-16T12:15:48.896Z,4029.00
2022-11-16T12:16:48.899Z,5915.00
2022-11-16T12:17:48.868Z,4461.00
2022-11-16T12:18:48.891Z,3080.00
2022-11-16T12:19:48.848Z,3770.00
2022-11-16T12:20:48.871Z,4624.00
2022-11-16T12:21:48.821Z,4415.00
2022-11-16T12:22:48.811Z,5384.00
2022-11-16T12:23:48.774Z,4426.00
2022-11-16T12:24:48.802Z,3822.00
2022-11-16T12:25:48.750Z,4169.00
2022-11-16T12:26:48.749Z,4356.00
2022-11-16T12:27:48.725Z,4231.00
2022-11-16T12:28:51.270Z,5064.00
2022-11-16T12:29:48.740Z,5352.00
2022-11-16T12:30:48.691Z,4399.00
2022-11-16T12:31:48.718Z,3038.00
2022-11-16T12:32:48.676Z,2841.00
2022-11-16T12:33:48.647Z,3471.00
2022-11-16T12:34:48.677Z,3385.00
2022-11-16T12:35:48.841Z,2192.00
2022-11-16T12:36:48.617Z,3071.00
2022-11-16T12:37:48.590Z,3524.00
2022-11-16T12:38:48.598Z,4623.00
2022-11-16T12:39:48.563Z,4945.00
2022-11-16T12:40:48.591Z,3473.00
2022-11-16T12:41:48.544Z,2929.00
2022-11-16T12:42:48.541Z,1862.00
2022-11-16T12:43:48.508Z,2304.00